sensor_id;sensor_type;location;lat;lon;timestamp;P1;durP1;ratioP1;P2;durP2;ratioP2
33491;SDS011;20010;51.488;7.232;2023-02-28T00:00:51;4.28;;;3.30;;
33491;SDS011;20010;51.488;7.232;2023-02-28T00:03:18;5.57;;;3.38;;
33491;SDS011;20010;51.488;7.232;2023-02-28T00:05:45;4.72;;;3.33;;
33491;SDS011;20010;51.488;7.232;2023-02-28T00:08:11;6.07;;;3.38;;
33491;SDS011;20010;51.488;7.232;2023-02-28T00:10:39;5.78;;;3.38;;
33491;SDS011;20010;51.488;7.232;2023-02-28T00:13:06;5.68;;;3.40;;
33491;SDS011;20010;51.488;7.232;2023-02-28T00:15:33;3.97;;;3.28;;
33491;SDS011;20010;51.488;7.232;2023-02-28T00:18:00;9.55;;;4.40;;
33491;SDS011;20010;51.488;7.232;2023-02-28T00:20:27;5.47;;;3.47;;
33491;SDS011;20010;51.488;7.232;2023-02-28T00:22:54;5.57;;;3.67;;
33491;SDS011;20010;51.488;7.232;2023-02-28T00:25:22;5.95;;;3.08;;
33491;SDS011;20010;51.488;7.232;2023-02-28T00:27:49;3.28;;;2.75;;
33491;SDS011;20010;51.488;7.232;2023-02-28T00:30:17;6.65;;;3.15;;
33491;SDS011;20010;51.488;7.232;2023-02-28T00:32:45;7.45;;;3.42;;
33491;SDS011;20010;51.488;7.232;2023-02-28T00:35:12;3.85;;;3.05;;
33491;SDS011;20010;51.488;7.232;2023-02-28T00:37:38;5.68;;;4.30;;
33491;SDS011;20010;51.488;7.232;2023-02-28T00:40:05;8.48;;;3.47;;
33491;SDS011;20010;51.488;7.232;2023-02-28T00:42:33;5.20;;;3.63;;
33491;SDS011;20010;51.488;7.232;2023-02-28T00:45:00;7.18;;;3.65;;
33491;SDS011;20010;51.488;7.232;2023-02-28T00:47:27;4.35;;;3.08;;
33491;SDS011;20010;51.488;7.232;2023-02-28T00:49:54;4.32;;;3.55;;
33491;SDS011;20010;51.488;7.232;2023-02-28T00:52:20;5.78;;;3.88;;
33491;SDS011;20010;51.488;7.232;2023-02-28T00:54:47;5.18;;;3.42;;
33491;SDS011;20010;51.488;7.232;2023-02-28T00:57:14;3.42;;;3.10;;
33491;SDS011;20010;51.488;7.232;2023-02-28T00:59:41;5.97;;;3.05;;
33491;SDS011;20010;51.488;7.232;2023-02-28T01:02:07;5.32;;;2.92;;
33491;SDS011;20010;51.488;7.232;2023-02-28T01:04:34;6.88;;;3.15;;
33491;SDS011;20010;51.488;7.232;2023-02-28T01:07:01;3.00;;;2.70;;
33491;SDS011;20010;51.488;7.232;2023-02-28T01:09:27;3.75;;;3.17;;
33491;SDS011;20010;51.488;7.232;2023-02-28T01:11:54;4.88;;;3.45;;
33491;SDS011;20010;51.488;7.232;2023-02-28T01:14:20;5.13;;;2.67;;
33491;SDS011;20010;51.488;7.232;2023-02-28T01:16:47;5.32;;;3.28;;
33491;SDS011;20010;51.488;7.232;2023-02-28T01:19:13;3.83;;;2.90;;
33491;SDS011;20010;51.488;7.232;2023-02-28T01:21:40;4.25;;;2.70;;
33491;SDS011;20010;51.488;7.232;2023-02-28T01:24:07;3.33;;;2.95;;
33491;SDS011;20010;51.488;7.232;2023-02-28T01:26:33;4.13;;;2.78;;
33491;SDS011;20010;51.488;7.232;2023-02-28T01:29:00;4.57;;;3.15;;
33491;SDS011;20010;51.488;7.232;2023-02-28T01:31:26;4.07;;;2.35;;
33491;SDS011;20010;51.488;7.232;2023-02-28T01:33:54;3.75;;;3.00;;
33491;SDS011;20010;51.488;7.232;2023-02-28T01:36:21;5.18;;;3.17;;
33491;SDS011;20010;51.488;7.232;2023-02-28T01:38:49;7.03;;;3.22;;
33491;SDS011;20010;51.488;7.232;2023-02-28T01:41:17;7.80;;;3.17;;
33491;SDS011;20010;51.488;7.232;2023-02-28T01:46:14;5.43;;;3.33;;
33491;SDS011;20010;51.488;7.232;2023-02-28T01:48:51;6.95;;;3.05;;
33491;SDS011;20010;51.488;7.232;2023-02-28T01:51:41;7.10;;;3.25;;
33491;SDS011;20010;51.488;7.232;2023-02-28T01:54:18;5.45;;;2.78;;
33491;SDS011;20010;51.488;7.232;2023-02-28T01:57:06;3.75;;;2.38;;
33491;SDS011;20010;51.488;7.232;2023-02-28T02:02:19;3.40;;;3.10;;
33491;SDS011;20010;51.488;7.232;2023-02-28T02:04:58;2.58;;;2.38;;
33491;SDS011;20010;51.488;7.232;2023-02-28T02:07:29;3.28;;;2.75;;
33491;SDS011;20010;51.488;7.232;2023-02-28T02:42:55;6.57;;;2.97;;
33491;SDS011;20010;51.488;7.232;2023-02-28T02:47:53;5.10;;;2.75;;
33491;SDS011;20010;51.488;7.232;2023-02-28T02:50:33;4.25;;;2.90;;
33491;SDS011;20010;51.488;7.232;2023-02-28T02:53:03;5.55;;;3.10;;
33491;SDS011;20010;51.488;7.232;2023-02-28T02:55:31;7.25;;;2.75;;
33491;SDS011;20010;51.488;7.232;2023-02-28T02:58:02;3.63;;;2.65;;
33491;SDS011;20010;51.488;7.232;2023-02-28T03:00:32;5.18;;;2.90;;
33491;SDS011;20010;51.488;7.232;2023-02-28T03:03:02;5.35;;;3.08;;
33491;SDS011;20010;51.488;7.232;2023-02-28T03:05:45;5.70;;;2.78;;
33491;SDS011;20010;51.488;7.232;2023-02-28T03:08:13;5.28;;;3.08;;
33491;SDS011;20010;51.488;7.232;2023-02-28T03:10:41;5.28;;;2.53;;
33491;SDS011;20010;51.488;7.232;2023-02-28T03:13:26;5.50;;;2.95;;
33491;SDS011;20010;51.488;7.232;2023-02-28T03:16:32;3.30;;;2.47;;
33491;SDS011;20010;51.488;7.232;2023-02-28T03:27:08;3.42;;;2.60;;
33491;SDS011;20010;51.488;7.232;2023-02-28T03:29:39;6.40;;;3.10;;
33491;SDS011;20010;51.488;7.232;2023-02-28T03:35:02;3.70;;;3.10;;
33491;SDS011;20010;51.488;7.232;2023-02-28T03:37:36;4.63;;;2.95;;
33491;SDS011;20010;51.488;7.232;2023-02-28T03:40:23;6.97;;;3.10;;
33491;SDS011;20010;51.488;7.232;2023-02-28T03:42:54;4.60;;;2.83;;
33491;SDS011;20010;51.488;7.232;2023-02-28T03:45:28;3.25;;;2.80;;
33491;SDS011;20010;51.488;7.232;2023-02-28T03:50:36;4.07;;;2.63;;
33491;SDS011;20010;51.488;7.232;2023-02-28T03:55:50;3.75;;;2.85;;
33491;SDS011;20010;51.488;7.232;2023-02-28T03:58:22;6.10;;;2.35;;
33491;SDS011;20010;51.488;7.232;2023-02-28T04:01:12;4.70;;;3.38;;
33491;SDS011;20010;51.488;7.232;2023-02-28T04:06:12;2.55;;;2.35;;
33491;SDS011;20010;51.488;7.232;2023-02-28T04:08:42;7.63;;;3.17;;
33491;SDS011;20010;51.488;7.232;2023-02-28T04:11:13;4.88;;;2.63;;
33491;SDS011;20010;51.488;7.232;2023-02-28T04:13:45;4.13;;;2.88;;
33491;SDS011;20010;51.488;7.232;2023-02-28T04:16:12;4.93;;;3.05;;
33491;SDS011;20010;51.488;7.232;2023-02-28T04:18:57;3.85;;;2.65;;
33491;SDS011;20010;51.488;7.232;2023-02-28T04:23:59;4.13;;;3.20;;
33491;SDS011;20010;51.488;7.232;2023-02-28T04:26:30;5.68;;;2.72;;
33491;SDS011;20010;51.488;7.232;2023-02-28T04:28:57;3.50;;;2.63;;
33491;SDS011;20010;51.488;7.232;2023-02-28T04:31:24;5.38;;;2.50;;
33491;SDS011;20010;51.488;7.232;2023-02-28T04:33:51;6.28;;;3.22;;
33491;SDS011;20010;51.488;7.232;2023-02-28T04:36:18;6.00;;;3.15;;
33491;SDS011;20010;51.488;7.232;2023-02-28T04:38:45;8.70;;;3.33;;
33491;SDS011;20010;51.488;7.232;2023-02-28T04:41:12;4.35;;;2.97;;
33491;SDS011;20010;51.488;7.232;2023-02-28T04:43:39;5.88;;;2.95;;
33491;SDS011;20010;51.488;7.232;2023-02-28T04:46:06;4.50;;;2.95;;
33491;SDS011;20010;51.488;7.232;2023-02-28T04:48:34;5.45;;;2.85;;
33491;SDS011;20010;51.488;7.232;2023-02-28T04:51:06;4.85;;;2.95;;
33491;SDS011;20010;51.488;7.232;2023-02-28T04:53:35;3.47;;;2.83;;
33491;SDS011;20010;51.488;7.232;2023-02-28T04:56:03;5.82;;;3.60;;
33491;SDS011;20010;51.488;7.232;2023-02-28T04:58:31;3.63;;;2.83;;
33491;SDS011;20010;51.488;7.232;2023-02-28T05:01:01;6.15;;;3.30;;
33491;SDS011;20010;51.488;7.232;2023-02-28T05:03:39;4.72;;;3.10;;
33491;SDS011;20010;51.488;7.232;2023-02-28T05:06:08;5.57;;;3.00;;
33491;SDS011;20010;51.488;7.232;2023-02-28T05:08:36;6.00;;;2.70;;
33491;SDS011;20010;51.488;7.232;2023-02-28T05:11:05;5.00;;;3.05;;
33491;SDS011;20010;51.488;7.232;2023-02-28T05:13:33;3.05;;;2.75;;
33491;SDS011;20010;51.488;7.232;2023-02-28T05:15:59;9.75;;;3.25;;
33491;SDS011;20010;51.488;7.232;2023-02-28T05:18:40;3.50;;;2.63;;
33491;SDS011;20010;51.488;7.232;2023-02-28T05:23:46;3.85;;;3.03;;
33491;SDS011;20010;51.488;7.232;2023-02-28T05:26:13;6.30;;;3.70;;
33491;SDS011;20010;51.488;7.232;2023-02-28T05:28:40;5.97;;;2.72;;
33491;SDS011;20010;51.488;7.232;2023-02-28T05:31:07;3.10;;;2.63;;
33491;SDS011;20010;51.488;7.232;2023-02-28T05:33:36;5.10;;;3.78;;
33491;SDS011;20010;51.488;7.232;2023-02-28T05:36:03;3.15;;;2.40;;
33491;SDS011;20010;51.488;7.232;2023-02-28T05:38:30;3.30;;;2.30;;
33491;SDS011;20010;51.488;7.232;2023-02-28T05:40:56;5.85;;;2.70;;
33491;SDS011;20010;51.488;7.232;2023-02-28T05:43:23;4.53;;;2.63;;
33491;SDS011;20010;51.488;7.232;2023-02-28T05:45:50;2.88;;;2.58;;
33491;SDS011;20010;51.488;7.232;2023-02-28T05:48:16;4.65;;;2.60;;
33491;SDS011;20010;51.488;7.232;2023-02-28T05:50:44;5.07;;;3.75;;
33491;SDS011;20010;51.488;7.232;2023-02-28T05:53:12;11.90;;;4.97;;
33491;SDS011;20010;51.488;7.232;2023-02-28T05:55:38;6.28;;;4.50;;
33491;SDS011;20010;51.488;7.232;2023-02-28T05:58:07;6.43;;;3.17;;
33491;SDS011;20010;51.488;7.232;2023-02-28T06:00:33;4.10;;;3.40;;
33491;SDS011;20010;51.488;7.232;2023-02-28T06:03:00;4.80;;;3.85;;
33491;SDS011;20010;51.488;7.232;2023-02-28T06:05:28;12.07;;;6.30;;
33491;SDS011;20010;51.488;7.232;2023-02-28T06:07:54;6.43;;;3.85;;
33491;SDS011;20010;51.488;7.232;2023-02-28T06:10:21;3.55;;;3.10;;
33491;SDS011;20010;51.488;7.232;2023-02-28T06:12:48;5.40;;;3.10;;
33491;SDS011;20010;51.488;7.232;2023-02-28T06:15:14;6.35;;;2.83;;
33491;SDS011;20010;51.488;7.232;2023-02-28T06:17:42;4.40;;;2.75;;
33491;SDS011;20010;51.488;7.232;2023-02-28T06:20:10;5.30;;;3.05;;
33491;SDS011;20010;51.488;7.232;2023-02-28T06:22:39;8.77;;;3.80;;
33491;SDS011;20010;51.488;7.232;2023-02-28T06:25:06;6.68;;;2.97;;
33491;SDS011;20010;51.488;7.232;2023-02-28T06:27:33;4.80;;;2.92;;
33491;SDS011;20010;51.488;7.232;2023-02-28T06:30:00;3.55;;;2.88;;
33491;SDS011;20010;51.488;7.232;2023-02-28T06:32:26;5.40;;;3.08;;
33491;SDS011;20010;51.488;7.232;2023-02-28T06:34:53;5.95;;;3.75;;
33491;SDS011;20010;51.488;7.232;2023-02-28T06:37:19;5.80;;;3.42;;
33491;SDS011;20010;51.488;7.232;2023-02-28T06:39:46;5.25;;;3.03;;
33491;SDS011;20010;51.488;7.232;2023-02-28T06:42:12;4.05;;;3.15;;
33491;SDS011;20010;51.488;7.232;2023-02-28T06:44:40;4.80;;;2.95;;
33491;SDS011;20010;51.488;7.232;2023-02-28T06:47:09;5.00;;;2.85;;
33491;SDS011;20010;51.488;7.232;2023-02-28T06:49:36;3.25;;;2.80;;
33491;SDS011;20010;51.488;7.232;2023-02-28T06:52:02;3.40;;;2.80;;
33491;SDS011;20010;51.488;7.232;2023-02-28T06:54:29;3.53;;;2.95;;
33491;SDS011;20010;51.488;7.232;2023-02-28T06:56:57;7.25;;;3.20;;
33491;SDS011;20010;51.488;7.232;2023-02-28T06:59:24;5.82;;;3.72;;
33491;SDS011;20010;51.488;7.232;2023-02-28T07:01:50;6.18;;;3.30;;
33491;SDS011;20010;51.488;7.232;2023-02-28T07:04:17;6.88;;;3.03;;
33491;SDS011;20010;51.488;7.232;2023-02-28T07:06:44;3.42;;;2.90;;
33491;SDS011;20010;51.488;7.232;2023-02-28T07:09:10;3.88;;;2.95;;
33491;SDS011;20010;51.488;7.232;2023-02-28T07:11:37;5.88;;;3.10;;
33491;SDS011;20010;51.488;7.232;2023-02-28T07:14:03;6.22;;;3.10;;
33491;SDS011;20010;51.488;7.232;2023-02-28T07:16:30;5.28;;;3.85;;
33491;SDS011;20010;51.488;7.232;2023-02-28T07:18:57;4.10;;;3.38;;
33491;SDS011;20010;51.488;7.232;2023-02-28T07:21:23;3.60;;;3.30;;
33491;SDS011;20010;51.488;7.232;2023-02-28T07:23:50;7.10;;;3.33;;
33491;SDS011;20010;51.488;7.232;2023-02-28T07:26:18;3.97;;;2.90;;
33491;SDS011;20010;51.488;7.232;2023-02-28T07:28:46;6.97;;;4.20;;
33491;SDS011;20010;51.488;7.232;2023-02-28T07:31:14;6.22;;;4.07;;
33491;SDS011;20010;51.488;7.232;2023-02-28T07:33:41;6.38;;;3.75;;
33491;SDS011;20010;51.488;7.232;2023-02-28T07:36:09;4.60;;;2.95;;
33491;SDS011;20010;51.488;7.232;2023-02-28T07:38:42;3.85;;;3.05;;
33491;SDS011;20010;51.488;7.232;2023-02-28T07:41:14;8.07;;;3.28;;
33491;SDS011;20010;51.488;7.232;2023-02-28T07:43:41;6.30;;;3.53;;
33491;SDS011;20010;51.488;7.232;2023-02-28T07:46:09;5.10;;;3.13;;
33491;SDS011;20010;51.488;7.232;2023-02-28T07:48:37;4.72;;;3.13;;
33491;SDS011;20010;51.488;7.232;2023-02-28T07:51:04;4.25;;;2.90;;
33491;SDS011;20010;51.488;7.232;2023-02-28T07:53:30;4.78;;;2.83;;
33491;SDS011;20010;51.488;7.232;2023-02-28T07:55:58;3.50;;;2.75;;
33491;SDS011;20010;51.488;7.232;2023-02-28T07:58:26;8.05;;;2.78;;
33491;SDS011;20010;51.488;7.232;2023-02-28T08:00:53;5.00;;;3.28;;
33491;SDS011;20010;51.488;7.232;2023-02-28T08:03:21;4.22;;;3.03;;
33491;SDS011;20010;51.488;7.232;2023-02-28T08:05:48;5.72;;;2.83;;
33491;SDS011;20010;51.488;7.232;2023-02-28T08:08:15;5.57;;;4.07;;
33491;SDS011;20010;51.488;7.232;2023-02-28T08:10:43;2.92;;;2.65;;
33491;SDS011;20010;51.488;7.232;2023-02-28T08:13:10;4.43;;;3.20;;
33491;SDS011;20010;51.488;7.232;2023-02-28T08:15:36;7.07;;;3.28;;
33491;SDS011;20010;51.488;7.232;2023-02-28T08:18:03;3.58;;;3.28;;
33491;SDS011;20010;51.488;7.232;2023-02-28T08:20:30;7.28;;;3.85;;
33491;SDS011;20010;51.488;7.232;2023-02-28T08:22:57;5.68;;;3.38;;
33491;SDS011;20010;51.488;7.232;2023-02-28T08:25:23;4.07;;;2.65;;
33491;SDS011;20010;51.488;7.232;2023-02-28T08:27:50;3.95;;;2.95;;
33491;SDS011;20010;51.488;7.232;2023-02-28T08:30:18;4.60;;;3.20;;
33491;SDS011;20010;51.488;7.232;2023-02-28T08:32:46;5.25;;;3.08;;
33491;SDS011;20010;51.488;7.232;2023-02-28T08:35:12;4.53;;;3.22;;
33491;SDS011;20010;51.488;7.232;2023-02-28T08:37:39;3.97;;;2.90;;
33491;SDS011;20010;51.488;7.232;2023-02-28T08:40:06;4.45;;;2.97;;
33491;SDS011;20010;51.488;7.232;2023-02-28T08:42:33;5.15;;;3.15;;
33491;SDS011;20010;51.488;7.232;2023-02-28T08:45:00;4.45;;;3.28;;
33491;SDS011;20010;51.488;7.232;2023-02-28T08:47:27;4.28;;;2.78;;
33491;SDS011;20010;51.488;7.232;2023-02-28T08:49:53;4.45;;;2.75;;
33491;SDS011;20010;51.488;7.232;2023-02-28T08:52:20;4.47;;;2.70;;
33491;SDS011;20010;51.488;7.232;2023-02-28T08:54:46;4.00;;;3.03;;
33491;SDS011;20010;51.488;7.232;2023-02-28T08:57:13;4.43;;;3.15;;
33491;SDS011;20010;51.488;7.232;2023-02-28T08:59:39;4.18;;;2.80;;
33491;SDS011;20010;51.488;7.232;2023-02-28T09:02:08;4.35;;;2.92;;
33491;SDS011;20010;51.488;7.232;2023-02-28T09:04:35;3.50;;;2.33;;
33491;SDS011;20010;51.488;7.232;2023-02-28T09:07:02;6.30;;;2.80;;
33491;SDS011;20010;51.488;7.232;2023-02-28T09:09:28;4.68;;;3.08;;
33491;SDS011;20010;51.488;7.232;2023-02-28T09:11:55;7.30;;;4.32;;
33491;SDS011;20010;51.488;7.232;2023-02-28T09:14:22;5.35;;;2.60;;
33491;SDS011;20010;51.488;7.232;2023-02-28T09:16:49;3.38;;;2.58;;
33491;SDS011;20010;51.488;7.232;2023-02-28T09:19:16;4.75;;;2.70;;
33491;SDS011;20010;51.488;7.232;2023-02-28T09:21:43;2.55;;;2.35;;
33491;SDS011;20010;51.488;7.232;2023-02-28T09:24:09;5.20;;;3.13;;
33491;SDS011;20010;51.488;7.232;2023-02-28T09:26:38;7.05;;;4.25;;
33491;SDS011;20010;51.488;7.232;2023-02-28T09:29:12;5.03;;;2.78;;
33491;SDS011;20010;51.488;7.232;2023-02-28T09:31:40;2.95;;;2.50;;
33491;SDS011;20010;51.488;7.232;2023-02-28T09:34:07;4.88;;;2.75;;
33491;SDS011;20010;51.488;7.232;2023-02-28T09:36:34;2.80;;;2.55;;
33491;SDS011;20010;51.488;7.232;2023-02-28T09:39:10;3.15;;;2.80;;
33491;SDS011;20010;51.488;7.232;2023-02-28T09:41:42;3.88;;;3.35;;
33491;SDS011;20010;51.488;7.232;2023-02-28T09:44:18;6.75;;;3.10;;
33491;SDS011;20010;51.488;7.232;2023-02-28T09:46:59;3.05;;;2.50;;
33491;SDS011;20010;51.488;7.232;2023-02-28T09:49:38;6.37;;;2.60;;
33491;SDS011;20010;51.488;7.232;2023-02-28T09:52:12;3.65;;;2.30;;
33491;SDS011;20010;51.488;7.232;2023-02-28T09:54:40;3.78;;;2.20;;
33491;SDS011;20010;51.488;7.232;2023-02-28T09:59:53;2.53;;;2.10;;
33491;SDS011;20010;51.488;7.232;2023-02-28T10:05:19;2.88;;;2.00;;
33491;SDS011;20010;51.488;7.232;2023-02-28T10:10:33;4.60;;;2.28;;
33491;SDS011;20010;51.488;7.232;2023-02-28T10:13:03;4.38;;;2.20;;
33491;SDS011;20010;51.488;7.232;2023-02-28T10:15:32;5.45;;;2.00;;
33491;SDS011;20010;51.488;7.232;2023-02-28T10:18:01;3.92;;;1.77;;
33491;SDS011;20010;51.488;7.232;2023-02-28T10:20:37;3.15;;;1.83;;
33491;SDS011;20010;51.488;7.232;2023-02-28T10:26:05;4.22;;;2.30;;
33491;SDS011;20010;51.488;7.232;2023-02-28T10:28:37;5.53;;;2.58;;
33491;SDS011;20010;51.488;7.232;2023-02-28T10:31:04;2.70;;;1.80;;
33491;SDS011;20010;51.488;7.232;2023-02-28T10:33:34;2.42;;;2.22;;
33491;SDS011;20010;51.488;7.232;2023-02-28T10:36:03;2.72;;;2.10;;
33491;SDS011;20010;51.488;7.232;2023-02-28T10:38:34;2.63;;;1.85;;
33491;SDS011;20010;51.488;7.232;2023-02-28T10:41:05;2.25;;;1.75;;
33491;SDS011;20010;51.488;7.232;2023-02-28T10:43:35;2.92;;;2.10;;
33491;SDS011;20010;51.488;7.232;2023-02-28T10:48:42;2.42;;;1.77;;
33491;SDS011;20010;51.488;7.232;2023-02-28T10:51:11;1.98;;;1.67;;
33491;SDS011;20010;51.488;7.232;2023-02-28T10:56:26;2.47;;;1.90;;
33491;SDS011;20010;51.488;7.232;2023-02-28T11:03:57;2.63;;;1.75;;
33491;SDS011;20010;51.488;7.232;2023-02-28T11:06:31;4.80;;;2.13;;
33491;SDS011;20010;51.488;7.232;2023-02-28T11:09:00;2.97;;;1.90;;
33491;SDS011;20010;51.488;7.232;2023-02-28T11:11:29;2.22;;;1.77;;
33491;SDS011;20010;51.488;7.232;2023-02-28T11:14:02;2.35;;;1.83;;
33491;SDS011;20010;51.488;7.232;2023-02-28T11:16:34;2.67;;;2.17;;
33491;SDS011;20010;51.488;7.232;2023-02-28T11:19:02;4.35;;;1.77;;
33491;SDS011;20010;51.488;7.232;2023-02-28T11:21:34;1.92;;;1.70;;
33491;SDS011;20010;51.488;7.232;2023-02-28T11:24:12;2.22;;;1.80;;
33491;SDS011;20010;51.488;7.232;2023-02-28T11:26:42;2.60;;;1.80;;
33491;SDS011;20010;51.488;7.232;2023-02-28T11:29:21;2.47;;;2.30;;
33491;SDS011;20010;51.488;7.232;2023-02-28T11:32:00;2.33;;;1.98;;
33491;SDS011;20010;51.488;7.232;2023-02-28T11:34:28;4.60;;;1.80;;
33491;SDS011;20010;51.488;7.232;2023-02-28T11:36:55;1.85;;;1.75;;
33491;SDS011;20010;51.488;7.232;2023-02-28T11:39:23;2.40;;;2.00;;
33491;SDS011;20010;51.488;7.232;2023-02-28T12:02:14;3.13;;;2.10;;
33491;SDS011;20010;51.488;7.232;2023-02-28T12:05:10;1.83;;;1.73;;
33491;SDS011;20010;51.488;7.232;2023-02-28T12:07:46;3.10;;;1.70;;
33491;SDS011;20010;51.488;7.232;2023-02-28T12:10:35;3.78;;;1.63;;
33491;SDS011;20010;51.488;7.232;2023-02-28T12:21:48;1.77;;;1.67;;
33491;SDS011;20010;51.488;7.232;2023-02-28T12:27:07;2.38;;;1.85;;
33491;SDS011;20010;51.488;7.232;2023-02-28T12:29:41;3.80;;;2.53;;
33491;SDS011;20010;51.488;7.232;2023-02-28T12:32:27;3.00;;;2.00;;
33491;SDS011;20010;51.488;7.232;2023-02-28T12:35:19;2.40;;;2.03;;
33491;SDS011;20010;51.488;7.232;2023-02-28T12:40:22;2.83;;;1.80;;
33491;SDS011;20010;51.488;7.232;2023-02-28T12:42:51;2.55;;;1.73;;
33491;SDS011;20010;51.488;7.232;2023-02-28T12:45:26;3.92;;;2.08;;
33491;SDS011;20010;51.488;7.232;2023-02-28T12:47:59;2.90;;;2.08;;
33491;SDS011;20010;51.488;7.232;2023-02-28T12:50:29;2.55;;;1.50;;
33491;SDS011;20010;51.488;7.232;2023-02-28T12:58:55;3.65;;;1.85;;
33491;SDS011;20010;51.488;7.232;2023-02-28T13:01:40;2.53;;;1.90;;
33491;SDS011;20010;51.488;7.232;2023-02-28T13:07:25;3.35;;;1.80;;
33491;SDS011;20010;51.488;7.232;2023-02-28T13:09:59;2.83;;;2.10;;
33491;SDS011;20010;51.488;7.232;2023-02-28T13:12:27;4.47;;;1.90;;
33491;SDS011;20010;51.488;7.232;2023-02-28T13:17:48;3.22;;;1.67;;
33491;SDS011;20010;51.488;7.232;2023-02-28T13:20:17;3.22;;;1.77;;
33491;SDS011;20010;51.488;7.232;2023-02-28T13:23:16;2.42;;;2.08;;
33491;SDS011;20010;51.488;7.232;2023-02-28T13:26:13;1.83;;;1.40;;
33491;SDS011;20010;51.488;7.232;2023-02-28T13:31:15;2.17;;;1.77;;
33491;SDS011;20010;51.488;7.232;2023-02-28T13:38:50;2.22;;;1.40;;
33491;SDS011;20010;51.488;7.232;2023-02-28T13:51:49;2.13;;;1.58;;
33491;SDS011;20010;51.488;7.232;2023-02-28T13:56:57;2.50;;;2.30;;
33491;SDS011;20010;51.488;7.232;2023-02-28T14:07:58;2.33;;;2.00;;
33491;SDS011;20010;51.488;7.232;2023-02-28T14:10:31;4.13;;;2.10;;
33491;SDS011;20010;51.488;7.232;2023-02-28T14:18:40;2.42;;;2.05;;
33491;SDS011;20010;51.488;7.232;2023-02-28T14:26:33;2.05;;;1.90;;
33491;SDS011;20010;51.488;7.232;2023-02-28T14:31:45;3.08;;;1.80;;
33491;SDS011;20010;51.488;7.232;2023-02-28T14:37:13;3.72;;;2.28;;
33491;SDS011;20010;51.488;7.232;2023-02-28T14:39:43;3.45;;;2.05;;
33491;SDS011;20010;51.488;7.232;2023-02-28T14:42:29;3.65;;;2.60;;
33491;SDS011;20010;51.488;7.232;2023-02-28T14:45:01;2.55;;;2.35;;
33491;SDS011;20010;51.488;7.232;2023-02-28T14:47:30;3.20;;;2.38;;
33491;SDS011;20010;51.488;7.232;2023-02-28T14:49:58;2.65;;;2.08;;
33491;SDS011;20010;51.488;7.232;2023-02-28T14:52:27;3.40;;;2.17;;
33491;SDS011;20010;51.488;7.232;2023-02-28T14:54:57;3.50;;;2.80;;
33491;SDS011;20010;51.488;7.232;2023-02-28T14:57:29;5.60;;;1.98;;
33491;SDS011;20010;51.488;7.232;2023-02-28T15:02:50;3.47;;;2.50;;
33491;SDS011;20010;51.488;7.232;2023-02-28T15:08:02;3.92;;;2.70;;
33491;SDS011;20010;51.488;7.232;2023-02-28T15:10:35;3.05;;;2.30;;
33491;SDS011;20010;51.488;7.232;2023-02-28T15:13:05;2.75;;;2.22;;
33491;SDS011;20010;51.488;7.232;2023-02-28T15:18:06;6.75;;;2.47;;
33491;SDS011;20010;51.488;7.232;2023-02-28T15:23:04;4.45;;;2.22;;
33491;SDS011;20010;51.488;7.232;2023-02-28T15:25:31;3.85;;;2.28;;
33491;SDS011;20010;51.488;7.232;2023-02-28T15:27:57;2.63;;;2.15;;
33491;SDS011;20010;51.488;7.232;2023-02-28T15:30:25;2.95;;;2.35;;
33491;SDS011;20010;51.488;7.232;2023-02-28T15:33:07;2.80;;;2.45;;
33491;SDS011;20010;51.488;7.232;2023-02-28T15:35:44;2.28;;;1.85;;
33491;SDS011;20010;51.488;7.232;2023-02-28T15:38:16;2.83;;;2.47;;
33491;SDS011;20010;51.488;7.232;2023-02-28T15:40:55;3.03;;;2.60;;
33491;SDS011;20010;51.488;7.232;2023-02-28T15:48:32;4.47;;;2.70;;
33491;SDS011;20010;51.488;7.232;2023-02-28T15:56:35;5.72;;;2.70;;
33491;SDS011;20010;51.488;7.232;2023-02-28T15:59:06;2.88;;;2.63;;
33491;SDS011;20010;51.488;7.232;2023-02-28T16:01:36;5.32;;;3.35;;
33491;SDS011;20010;51.488;7.232;2023-02-28T16:04:04;6.47;;;2.75;;
33491;SDS011;20010;51.488;7.232;2023-02-28T16:11:51;3.13;;;2.63;;
33491;SDS011;20010;51.488;7.232;2023-02-28T16:14:23;5.43;;;3.50;;
33491;SDS011;20010;51.488;7.232;2023-02-28T16:16:52;6.25;;;4.13;;
33491;SDS011;20010;51.488;7.232;2023-02-28T16:19:20;4.28;;;3.08;;
33491;SDS011;20010;51.488;7.232;2023-02-28T16:21:48;3.15;;;2.70;;
33491;SDS011;20010;51.488;7.232;2023-02-28T16:24:14;3.63;;;2.70;;
33491;SDS011;20010;51.488;7.232;2023-02-28T16:26:41;5.05;;;2.42;;
33491;SDS011;20010;51.488;7.232;2023-02-28T16:29:16;3.78;;;3.15;;
33491;SDS011;20010;51.488;7.232;2023-02-28T16:31:49;4.03;;;3.05;;
33491;SDS011;20010;51.488;7.232;2023-02-28T16:34:16;5.38;;;3.28;;
33491;SDS011;20010;51.488;7.232;2023-02-28T16:36:43;3.30;;;2.70;;
33491;SDS011;20010;51.488;7.232;2023-02-28T16:39:15;3.15;;;2.45;;
33491;SDS011;20010;51.488;7.232;2023-02-28T16:41:42;3.30;;;2.42;;
33491;SDS011;20010;51.488;7.232;2023-02-28T16:44:11;3.72;;;3.00;;
33491;SDS011;20010;51.488;7.232;2023-02-28T16:46:59;3.17;;;2.75;;
33491;SDS011;20010;51.488;7.232;2023-02-28T16:49:26;2.85;;;2.50;;
33491;SDS011;20010;51.488;7.232;2023-02-28T16:51:53;2.95;;;2.65;;
33491;SDS011;20010;51.488;7.232;2023-02-28T16:54:19;3.38;;;3.08;;
33491;SDS011;20010;51.488;7.232;2023-02-28T16:56:47;3.47;;;3.08;;
33491;SDS011;20010;51.488;7.232;2023-02-28T16:59:15;7.13;;;4.07;;
33491;SDS011;20010;51.488;7.232;2023-02-28T17:01:45;3.33;;;2.85;;
33491;SDS011;20010;51.488;7.232;2023-02-28T17:04:11;2.92;;;2.63;;
33491;SDS011;20010;51.488;7.232;2023-02-28T17:06:38;3.20;;;2.90;;
33491;SDS011;20010;51.488;7.232;2023-02-28T17:09:04;4.63;;;3.03;;
33491;SDS011;20010;51.488;7.232;2023-02-28T17:11:31;6.30;;;2.90;;
33491;SDS011;20010;51.488;7.232;2023-02-28T17:13:58;5.47;;;3.10;;
33491;SDS011;20010;51.488;7.232;2023-02-28T17:16:29;4.07;;;2.85;;
33491;SDS011;20010;51.488;7.232;2023-02-28T17:19:04;4.32;;;3.88;;
33491;SDS011;20010;51.488;7.232;2023-02-28T17:21:32;4.00;;;2.90;;
33491;SDS011;20010;51.488;7.232;2023-02-28T17:24:00;3.60;;;2.85;;
33491;SDS011;20010;51.488;7.232;2023-02-28T17:26:26;3.60;;;2.97;;
33491;SDS011;20010;51.488;7.232;2023-02-28T17:28:55;4.03;;;2.95;;
33491;SDS011;20010;51.488;7.232;2023-02-28T17:31:23;4.18;;;2.75;;
33491;SDS011;20010;51.488;7.232;2023-02-28T17:33:51;2.88;;;2.60;;
33491;SDS011;20010;51.488;7.232;2023-02-28T17:36:20;7.18;;;3.00;;
33491;SDS011;20010;51.488;7.232;2023-02-28T17:38:48;3.33;;;2.58;;
33491;SDS011;20010;51.488;7.232;2023-02-28T17:41:15;5.80;;;4.00;;
33491;SDS011;20010;51.488;7.232;2023-02-28T17:43:42;5.22;;;4.25;;
33491;SDS011;20010;51.488;7.232;2023-02-28T17:46:11;4.00;;;3.05;;
33491;SDS011;20010;51.488;7.232;2023-02-28T17:48:42;6.18;;;3.80;;
33491;SDS011;20010;51.488;7.232;2023-02-28T17:51:09;3.72;;;3.03;;
33491;SDS011;20010;51.488;7.232;2023-02-28T17:53:38;4.97;;;3.70;;
33491;SDS011;20010;51.488;7.232;2023-02-28T17:56:08;3.33;;;3.03;;
33491;SDS011;20010;51.488;7.232;2023-02-28T17:58:37;4.07;;;3.15;;
33491;SDS011;20010;51.488;7.232;2023-02-28T18:01:04;6.15;;;4.38;;
33491;SDS011;20010;51.488;7.232;2023-02-28T18:03:31;4.30;;;3.50;;
33491;SDS011;20010;51.488;7.232;2023-02-28T18:05:58;5.43;;;3.45;;
33491;SDS011;20010;51.488;7.232;2023-02-28T18:08:25;6.97;;;3.95;;
33491;SDS011;20010;51.488;7.232;2023-02-28T18:10:52;6.30;;;4.10;;
33491;SDS011;20010;51.488;7.232;2023-02-28T18:13:18;4.63;;;4.18;;
33491;SDS011;20010;51.488;7.232;2023-02-28T18:15:45;5.10;;;4.32;;
33491;SDS011;20010;51.488;7.232;2023-02-28T18:18:11;5.18;;;3.50;;
33491;SDS011;20010;51.488;7.232;2023-02-28T18:20:38;4.13;;;3.47;;
33491;SDS011;20010;51.488;7.232;2023-02-28T18:23:05;6.53;;;3.85;;
33491;SDS011;20010;51.488;7.232;2023-02-28T18:25:32;5.50;;;4.35;;
33491;SDS011;20010;51.488;7.232;2023-02-28T18:27:58;5.18;;;4.00;;